createdAt,value
2023-05-15T00:00:53.454Z,99452.56
2023-05-15T00:03:21.221Z,99449.78
2023-05-15T00:05:49.387Z,99439.19
2023-05-15T00:08:16.526Z,99428.66
2023-05-15T00:10:57.385Z,99436.50
2023-05-15T00:13:27.646Z,99432.81
2023-05-15T00:15:54.808Z,99414.38
2023-05-15T00:18:21.990Z,99415.09
2023-05-15T00:20:49.101Z,99408.78
2023-05-15T00:23:16.282Z,99416.19
2023-05-15T00:25:43.703Z,99408.16
2023-05-15T00:28:10.858Z,99403.69
2023-05-15T00:30:37.994Z,99406.25
2023-05-15T00:33:07.824Z,99404.38
2023-05-15T00:35:35.087Z,99407.72
2023-05-15T00:38:02.476Z,99405.91
2023-05-15T00:40:32.221Z,99397.25
2023-05-15T00:43:00.695Z,99400.84
2023-05-15T00:45:30.270Z,99401.69
2023-05-15T00:47:59.314Z,99396.22
2023-05-15T00:50:27.224Z,99395.84
2023-05-15T00:52:56.077Z,99403.59
2023-05-15T00:55:23.704Z,99397.50
2023-05-15T00:57:53.102Z,99385.16
2023-05-15T01:00:20.983Z,99392.16
2023-05-15T01:02:48.314Z,99388.50
2023-05-15T01:05:16.017Z,99387.72
2023-05-15T01:08:01.653Z,99386.63
2023-05-15T01:10:29.002Z,99384.75
2023-05-15T01:12:57.434Z,99386.47
2023-05-15T01:15:25.028Z,99378.25
2023-05-15T01:17:52.575Z,99370.22
2023-05-15T01:20:22.348Z,99370.22
2023-05-15T01:23:25.113Z,99371.91
2023-05-15T01:26:59.929Z,99368.25
2023-05-15T01:29:57.813Z,99363.31
2023-05-15T01:32:56.478Z,99370.00
2023-05-15T01:35:49.237Z,99361.00
2023-05-15T01:38:53.954Z,99368.72
2023-05-15T01:41:46.602Z,99366.84
2023-05-15T01:44:29.238Z,99362.31
2023-05-15T01:47:02.768Z,99357.97
2023-05-15T01:49:32.382Z,99364.16
2023-05-15T01:52:20.812Z,99354.66
2023-05-15T01:54:49.898Z,99350.06
2023-05-15T01:57:17.909Z,99354.28
2023-05-15T01:59:46.016Z,99355.59
2023-05-15T02:02:14.484Z,99352.28
2023-05-15T02:04:45.724Z,99356.13
2023-05-15T02:07:15.614Z,99356.97
2023-05-15T02:09:44.310Z,99356.06
2023-05-15T02:12:13.581Z,99354.22
2023-05-15T02:14:41.430Z,99348.75
2023-05-15T02:17:08.712Z,99352.88
2023-05-15T02:19:35.959Z,99350.38
2023-05-15T02:22:06.665Z,99350.50
2023-05-15T02:24:33.978Z,99352.16
2023-05-15T02:27:27.962Z,99352.03
2023-05-15T02:30:43.427Z,99337.91
2023-05-15T02:33:42.282Z,99335.28
2023-05-15T02:36:20.393Z,99346.41
2023-05-15T02:38:55.447Z,99343.53
2023-05-15T02:41:23.755Z,99346.66
2023-05-15T02:43:52.963Z,99337.13
2023-05-15T02:46:21.828Z,99331.06
2023-05-15T02:48:50.563Z,99341.50
2023-05-15T02:51:17.841Z,99340.53
2023-05-15T02:53:45.060Z,99341.31
2023-05-15T02:56:12.420Z,99335.19
2023-05-15T02:58:40.433Z,99333.41
2023-05-15T03:01:07.936Z,99330.59
2023-05-15T03:03:35.300Z,99327.66
2023-05-15T03:06:02.724Z,99330.13
2023-05-15T03:08:29.953Z,99329.16
2023-05-15T03:10:57.133Z,99327.38
2023-05-15T03:13:24.321Z,99332.59
2023-05-15T03:15:53.403Z,99330.56
2023-05-15T03:18:20.824Z,99329.03
2023-05-15T03:20:49.242Z,99334.50
2023-05-15T03:23:16.428Z,99339.59
2023-05-15T03:25:43.642Z,99336.00
2023-05-15T03:28:11.580Z,99347.16
2023-05-15T03:30:38.749Z,99346.81
2023-05-15T03:33:06.566Z,99344.78
2023-05-15T03:35:33.833Z,99352.69
2023-05-15T03:38:01.465Z,99349.09
2023-05-15T03:40:28.829Z,99336.59
2023-05-15T03:42:56.274Z,99333.59
2023-05-15T03:45:23.640Z,99341.56
2023-05-15T03:47:51.209Z,99339.63
2023-05-15T03:50:18.562Z,99338.09
2023-05-15T03:52:45.781Z,99347.81
2023-05-15T03:55:13.005Z,99348.81
2023-05-15T03:57:41.601Z,99355.22
2023-05-15T04:00:10.840Z,99355.84
2023-05-15T04:02:41.358Z,99353.31
2023-05-15T04:05:09.799Z,99345.41
2023-05-15T04:07:37.650Z,99341.00
2023-05-15T04:10:05.906Z,99341.69
2023-05-15T04:12:35.512Z,99348.03
2023-05-15T04:15:25.330Z,99346.34
2023-05-15T04:17:54.653Z,99335.19
2023-05-15T04:20:24.843Z,99324.03
2023-05-15T04:22:53.501Z,99330.16
2023-05-15T04:25:20.743Z,99331.94
2023-05-15T04:27:49.196Z,99342.78
2023-05-15T04:30:16.795Z,99339.59
2023-05-15T04:32:44.375Z,99338.09
2023-05-15T04:35:13.427Z,99339.19
2023-05-15T04:37:42.864Z,99334.78
2023-05-15T04:40:10.682Z,99342.53
2023-05-15T04:42:39.134Z,99338.56
2023-05-15T04:45:08.119Z,99342.28
2023-05-15T04:47:36.255Z,99337.25
2023-05-15T04:50:03.886Z,99332.16
2023-05-15T04:52:32.185Z,99330.59
2023-05-15T04:54:59.570Z,99341.19
2023-05-15T04:57:27.587Z,99344.06
2023-05-15T04:59:54.729Z,99346.25
2023-05-15T05:02:23.345Z,99345.28
2023-05-15T05:04:50.863Z,99351.59
2023-05-15T05:07:18.236Z,99364.41
2023-05-15T05:09:45.522Z,99353.94
2023-05-15T05:12:12.785Z,99360.34
2023-05-15T05:14:44.587Z,99356.34
2023-05-15T05:17:11.838Z,99352.97
2023-05-15T05:19:39.081Z,99357.56
2023-05-15T05:22:06.321Z,99363.94
2023-05-15T05:24:37.691Z,99362.25
2023-05-15T05:27:05.693Z,99358.22
2023-05-15T05:29:33.661Z,99357.69
2023-05-15T05:32:01.328Z,99362.19
2023-05-15T05:34:28.937Z,99358.19
2023-05-15T05:36:56.267Z,99354.81
2023-05-15T05:39:23.442Z,99349.81
2023-05-15T05:41:50.865Z,99352.69
2023-05-15T05:44:18.076Z,99350.31
2023-05-15T05:46:46.139Z,99349.78
2023-05-15T05:49:13.285Z,99344.84
2023-05-15T05:51:55.750Z,99340.81
2023-05-15T05:54:23.793Z,99336.97
2023-05-15T05:56:51.097Z,99331.41
2023-05-15T05:59:18.359Z,99329.69
2023-05-15T06:01:45.919Z,99328.94
2023-05-15T06:04:13.170Z,99334.56
2023-05-15T06:06:41.248Z,99333.00
2023-05-15T06:09:09.347Z,99329.44
2023-05-15T06:11:37.175Z,99330.66
2023-05-15T06:14:04.517Z,99334.47
2023-05-15T06:16:32.123Z,99336.28
2023-05-15T06:18:59.406Z,99332.06
2023-05-15T06:21:26.847Z,99330.56
2023-05-15T06:23:54.124Z,99335.13
2023-05-15T06:26:21.888Z,99342.25
2023-05-15T06:28:49.187Z,99337.34
2023-05-15T06:31:17.663Z,99335.84
2023-05-15T06:33:45.308Z,99328.06
2023-05-15T06:36:12.779Z,99317.59
2023-05-15T06:38:40.356Z,99319.50
2023-05-15T06:41:07.966Z,99316.50
2023-05-15T06:43:36.416Z,99323.72
2023-05-15T06:46:04.591Z,99328.16
2023-05-15T06:48:41.463Z,99329.94
2023-05-15T06:51:11.602Z,99325.06
2023-05-15T06:53:40.887Z,99329.66
2023-05-15T06:56:08.644Z,99326.22
2023-05-15T06:58:35.922Z,99326.03
2023-05-15T07:01:03.923Z,99324.00
2023-05-15T07:03:31.438Z,99319.72
2023-05-15T07:05:58.768Z,99310.63
2023-05-15T07:08:26.886Z,99314.31
2023-05-15T07:10:54.244Z,99306.59
2023-05-15T07:13:22.543Z,99305.91
2023-05-15T07:15:49.871Z,99311.34
2023-05-15T07:18:20.351Z,99301.88
2023-05-15T07:20:50.639Z,99302.00
2023-05-15T07:23:26.630Z,99297.00
2023-05-15T07:25:56.151Z,99292.81
2023-05-15T07:28:23.480Z,99293.84
2023-05-15T07:30:51.355Z,99294.00
2023-05-15T07:33:21.794Z,99294.38
2023-05-15T07:35:51.019Z,99282.97
2023-05-15T07:38:18.591Z,99283.03
2023-05-15T07:40:45.899Z,99288.38
2023-05-15T07:43:13.416Z,99284.97
2023-05-15T07:45:41.188Z,99270.25
2023-05-15T07:48:20.583Z,99266.16
2023-05-15T07:50:48.829Z,99275.81
2023-05-15T07:53:16.865Z,99277.75
2023-05-15T07:55:52.280Z,99273.59
2023-05-15T07:58:19.921Z,99275.34
2023-05-15T08:00:47.101Z,99271.19
2023-05-15T08:03:14.544Z,99273.94
2023-05-15T08:05:42.015Z,99272.38
2023-05-15T08:08:09.386Z,99267.25
2023-05-15T08:10:36.825Z,99267.50
2023-05-15T08:13:06.478Z,99265.03
2023-05-15T08:15:39.478Z,99263.50
2023-05-15T08:18:10.926Z,99260.88
2023-05-15T08:20:50.186Z,99261.69
2023-05-15T08:23:18.624Z,99258.06
2023-05-15T08:25:45.850Z,99267.16
2023-05-15T08:28:13.128Z,99264.84
2023-05-15T08:30:40.535Z,99259.03
2023-05-15T08:33:08.016Z,99252.81
2023-05-15T08:35:36.544Z,99245.28
2023-05-15T08:38:03.902Z,99258.84
2023-05-15T08:40:39.250Z,99248.44
2023-05-15T08:43:17.987Z,99248.28
2023-05-15T08:45:47.613Z,99255.66
2023-05-15T08:48:21.555Z,99261.06
2023-05-15T08:50:50.062Z,99251.69
2023-05-15T08:53:18.111Z,99245.63
2023-05-15T08:55:46.210Z,99253.13
2023-05-15T08:58:14.181Z,99249.00
2023-05-15T09:00:41.607Z,99247.50
2023-05-15T09:03:16.500Z,99244.06
2023-05-15T09:05:44.438Z,99237.94
2023-05-15T09:08:12.140Z,99232.47
2023-05-15T09:10:39.785Z,99233.44
2023-05-15T09:13:07.987Z,99239.84
2023-05-15T09:15:37.174Z,99237.34
2023-05-15T09:18:06.280Z,99233.13
2023-05-15T09:20:38.490Z,99232.38
2023-05-15T09:23:22.477Z,99241.13
2023-05-15T09:25:53.903Z,99239.22
2023-05-15T09:28:32.069Z,99241.28
2023-05-15T09:31:05.438Z,99245.88
2023-05-15T09:33:39.700Z,99248.78
2023-05-15T09:36:12.265Z,99234.06
2023-05-15T09:38:48.092Z,99231.78
2023-05-15T09:41:25.014Z,99235.63
2023-05-15T09:43:54.335Z,99234.25
2023-05-15T09:46:24.837Z,99236.38
2023-05-15T09:48:56.053Z,99244.66
2023-05-15T09:51:27.721Z,99236.09
2023-05-15T09:53:55.430Z,99247.88
2023-05-15T09:56:23.094Z,99232.69
2023-05-15T09:58:59.444Z,99241.38
2023-05-15T10:01:27.717Z,99252.03
2023-05-15T10:04:06.214Z,99242.66
2023-05-15T10:06:42.821Z,99247.44
2023-05-15T10:09:11.503Z,99242.13
2023-05-15T10:11:52.818Z,99246.34
2023-05-15T10:14:22.247Z,99237.41
2023-05-15T10:16:51.215Z,99240.13
2023-05-15T10:19:23.924Z,99248.38
2023-05-15T10:21:53.932Z,99248.06
2023-05-15T10:24:22.965Z,99248.19
2023-05-15T10:26:50.591Z,99251.00
2023-05-15T10:29:24.070Z,99250.91
2023-05-15T10:31:52.479Z,99242.25
2023-05-15T10:34:21.204Z,99252.13
2023-05-15T10:36:50.996Z,99238.78
2023-05-15T10:39:21.412Z,99234.03
2023-05-15T10:41:51.404Z,99241.16
2023-05-15T10:44:19.496Z,99238.78
2023-05-15T10:46:48.061Z,99238.88
2023-05-15T10:49:15.606Z,99228.31
2023-05-15T10:51:43.121Z,99230.22
2023-05-15T10:54:10.848Z,99225.78
2023-05-15T10:56:39.983Z,99230.19
2023-05-15T10:59:11.628Z,99229.38
2023-05-15T11:01:41.545Z,99217.75
2023-05-15T11:04:16.230Z,99218.69
2023-05-15T11:06:50.987Z,99216.88
2023-05-15T11:09:27.907Z,99210.03
2023-05-15T11:12:00.675Z,99205.66
2023-05-15T11:14:51.608Z,99195.03
2023-05-15T11:17:19.132Z,99197.34
2023-05-15T11:19:49.996Z,99195.06
2023-05-15T11:22:36.080Z,99196.06
2023-05-15T11:25:14.242Z,99191.44
2023-05-15T11:27:46.822Z,99199.19
2023-05-15T11:30:22.706Z,99190.31
2023-05-15T11:33:08.662Z,99189.44
2023-05-15T11:35:40.456Z,99181.31
2023-05-15T11:38:10.925Z,99174.66
2023-05-15T11:40:49.260Z,99165.28
2023-05-15T11:43:31.941Z,99171.28
2023-05-15T11:46:14.015Z,99169.72
2023-05-15T11:48:47.689Z,99161.56
2023-05-15T11:51:22.036Z,99156.56
2023-05-15T11:53:55.126Z,99160.13
2023-05-15T11:56:28.517Z,99144.88
2023-05-15T11:59:00.165Z,99147.66
2023-05-15T12:01:29.341Z,99140.03
2023-05-15T12:03:59.499Z,99131.81
2023-05-15T12:06:26.999Z,99127.13
2023-05-15T12:08:54.231Z,99133.06
2023-05-15T12:11:25.687Z,99147.56
2023-05-15T12:13:55.603Z,99152.34
2023-05-15T12:16:27.485Z,99148.47
2023-05-15T12:18:58.046Z,99148.03
2023-05-15T12:21:28.906Z,99140.97
2023-05-15T12:26:29.598Z,99130.38
2023-05-15T12:28:57.149Z,99140.81
2023-05-15T12:31:27.128Z,99135.47
2023-05-15T12:33:55.676Z,99135.31
2023-05-15T12:36:23.121Z,99133.03
2023-05-15T12:38:50.781Z,99125.59
2023-05-15T12:41:20.009Z,99132.50
2023-05-15T12:43:48.400Z,99132.75
2023-05-15T12:46:15.774Z,99136.72
2023-05-15T12:48:43.116Z,99133.13
2023-05-15T12:51:10.317Z,99136.78
2023-05-15T12:53:40.063Z,99141.28
2023-05-15T12:56:09.537Z,99134.00
2023-05-15T12:58:39.009Z,99142.66
2023-05-15T13:01:15.917Z,99142.13
2023-05-15T13:03:44.524Z,99139.03
2023-05-15T13:06:11.921Z,99134.72
2023-05-15T13:08:42.831Z,99127.28
2023-05-15T13:11:14.204Z,99121.09
2023-05-15T13:13:48.653Z,99127.91
2023-05-15T13:16:25.386Z,99139.75
2023-05-15T13:18:53.823Z,99131.91
2023-05-15T13:21:21.317Z,99129.72
2023-05-15T13:23:48.750Z,99134.53
2023-05-15T13:26:16.568Z,99134.72
2023-05-15T13:28:43.972Z,99136.81
2023-05-15T13:31:11.601Z,99127.94
2023-05-15T13:33:39.357Z,99118.69
2023-05-15T13:36:10.356Z,99124.72
2023-05-15T13:38:38.185Z,99120.84
2023-05-15T13:41:05.761Z,99126.19
2023-05-15T13:43:32.978Z,99129.28
2023-05-15T13:46:00.273Z,99124.31
2023-05-15T13:48:30.059Z,99116.00
2023-05-15T13:50:57.532Z,99124.06
2023-05-15T13:53:24.698Z,99112.16
2023-05-15T13:55:51.888Z,99117.53
2023-05-15T13:58:19.247Z,99107.59
2023-05-15T14:00:48.689Z,99108.63
2023-05-15T14:03:16.156Z,99107.84
2023-05-15T14:05:43.500Z,99109.13
2023-05-15T14:08:11.044Z,99103.59
2023-05-15T14:10:38.202Z,99098.84
2023-05-15T14:13:05.700Z,99099.59
2023-05-15T14:15:32.930Z,99091.66
2023-05-15T14:18:00.259Z,99084.47
2023-05-15T14:20:27.977Z,99073.34
2023-05-15T14:22:56.088Z,99073.81
2023-05-15T14:25:24.324Z,99065.41
2023-05-15T14:27:51.552Z,99075.78
2023-05-15T14:30:19.167Z,99063.16
2023-05-15T14:32:46.440Z,99064.44
2023-05-15T14:35:13.598Z,99068.81
2023-05-15T14:37:40.782Z,99077.38
2023-05-15T14:40:09.688Z,99071.00
2023-05-15T14:42:37.203Z,99060.59
2023-05-15T14:45:04.929Z,99050.47
2023-05-15T14:47:32.319Z,99062.34
2023-05-15T14:49:59.648Z,99061.53
2023-05-15T14:52:26.942Z,99056.16
2023-05-15T14:55:07.915Z,99053.41
2023-05-15T14:57:36.949Z,99060.47
2023-05-15T15:00:08.079Z,99056.84
2023-05-15T15:02:35.741Z,99056.84
2023-05-15T15:05:04.675Z,99062.88
2023-05-15T15:07:57.804Z,99064.41
2023-05-15T15:10:25.433Z,99068.72
2023-05-15T15:12:53.290Z,99062.50
2023-05-15T15:15:21.068Z,99066.03
2023-05-15T15:17:48.290Z,99065.84
2023-05-15T15:20:19.485Z,99067.59
2023-05-15T15:22:47.653Z,99066.88
2023-05-15T15:25:15.194Z,99059.91
2023-05-15T15:27:42.618Z,99068.00
2023-05-15T15:30:11.228Z,99066.41
2023-05-15T15:32:40.283Z,99067.84
2023-05-15T15:35:08.141Z,99065.50
2023-05-15T15:37:37.599Z,99064.97
2023-05-15T15:40:08.392Z,99064.00
2023-05-15T15:42:35.872Z,99071.19
2023-05-15T15:45:04.676Z,99066.72
2023-05-15T15:47:32.206Z,99062.63
2023-05-15T15:49:59.819Z,99061.19
2023-05-15T15:52:27.801Z,99052.28
2023-05-15T15:54:54.963Z,99063.66
2023-05-15T15:57:22.373Z,99055.75
2023-05-15T15:59:49.657Z,99052.81
2023-05-15T16:02:17.452Z,99052.59
2023-05-15T16:04:44.734Z,99049.25
2023-05-15T16:07:11.985Z,99051.13
2023-05-15T16:09:39.213Z,99044.47
2023-05-15T16:12:06.974Z,99048.72
2023-05-15T16:14:34.277Z,99060.38
2023-05-15T16:17:04.208Z,99057.03
2023-05-15T16:19:31.557Z,99057.19
2023-05-15T16:21:58.821Z,99066.94
2023-05-15T16:24:26.385Z,99062.41
2023-05-15T16:26:53.605Z,99063.59
2023-05-15T16:29:20.997Z,99064.94
2023-05-15T16:31:48.358Z,99061.94
2023-05-15T16:34:15.654Z,99068.31
2023-05-15T16:36:42.868Z,99061.28
2023-05-15T16:39:10.082Z,99062.88
2023-05-15T16:41:37.346Z,99065.81
2023-05-15T16:44:06.375Z,99071.41
2023-05-15T16:46:33.567Z,99061.09
2023-05-15T16:49:00.975Z,99058.22
2023-05-15T16:51:28.145Z,99061.44
2023-05-15T16:53:56.504Z,99060.09
2023-05-15T16:56:24.322Z,99061.28
2023-05-15T16:58:53.907Z,99060.13
2023-05-15T17:01:21.320Z,99057.13
2023-05-15T17:03:48.645Z,99054.94
2023-05-15T17:06:16.686Z,99060.13
2023-05-15T17:08:45.253Z,99066.97
2023-05-15T17:11:13.336Z,99054.63
2023-05-15T17:13:40.787Z,99054.34
2023-05-15T17:16:08.751Z,99054.19
2023-05-15T17:18:36.152Z,99050.41
2023-05-15T17:21:03.490Z,99046.44
2023-05-15T17:23:30.711Z,99050.06
2023-05-15T17:25:57.936Z,99040.75
2023-05-15T17:28:25.255Z,99045.53
2023-05-15T17:30:52.588Z,99037.25
2023-05-15T17:33:19.775Z,99040.28
2023-05-15T17:35:47.108Z,99041.81
2023-05-15T17:38:14.390Z,99037.28
2023-05-15T17:40:41.865Z,99038.19
2023-05-15T17:43:10.272Z,99034.56
2023-05-15T17:45:37.618Z,99033.69
2023-05-15T17:48:05.721Z,99031.00
2023-05-15T17:50:34.993Z,99035.41
2023-05-15T17:53:03.717Z,99037.31
2023-05-15T17:55:30.962Z,99033.13
2023-05-15T17:57:58.295Z,99028.75
2023-05-15T18:00:25.786Z,99023.59
2023-05-15T18:02:53.807Z,99026.72
2023-05-15T18:05:21.131Z,99021.56
2023-05-15T18:07:48.563Z,99025.19
2023-05-15T18:10:15.739Z,99020.75
2023-05-15T18:12:42.997Z,99027.41
2023-05-15T18:15:10.995Z,99023.97
2023-05-15T18:17:38.829Z,99027.56
2023-05-15T18:20:07.197Z,99029.56
2023-05-15T18:22:34.350Z,99031.28
2023-05-15T18:25:02.039Z,99028.69
2023-05-15T18:27:29.372Z,99028.81
2023-05-15T18:29:56.937Z,99029.81
2023-05-15T18:32:24.184Z,99031.56
2023-05-15T18:34:51.536Z,99034.44
2023-05-15T18:37:18.753Z,99039.75
2023-05-15T18:39:47.911Z,99045.97
2023-05-15T18:42:16.292Z,99037.22
2023-05-15T18:44:44.867Z,99034.63
2023-05-15T18:47:12.124Z,99032.91
2023-05-15T18:49:39.269Z,99036.47
2023-05-15T18:52:06.739Z,99040.91
2023-05-15T18:54:34.230Z,99037.47
2023-05-15T18:57:01.524Z,99042.84
2023-05-15T18:59:29.580Z,99041.13
2023-05-15T19:01:56.907Z,99049.13
2023-05-15T19:04:24.208Z,99054.47
2023-05-15T19:06:52.551Z,99050.00
2023-05-15T19:09:19.818Z,99059.72
2023-05-15T19:11:49.226Z,99061.53
2023-05-15T19:14:17.867Z,99062.38
2023-05-15T19:16:46.164Z,99062.41
2023-05-15T19:19:13.735Z,99068.59
2023-05-15T19:21:41.011Z,99064.19
2023-05-15T19:24:08.727Z,99071.22
2023-05-15T19:26:37.820Z,99069.47
2023-05-15T19:29:05.940Z,99073.00
2023-05-15T19:31:33.311Z,99071.19
2023-05-15T19:34:00.971Z,99092.38
2023-05-15T19:36:28.227Z,99080.91
2023-05-15T19:38:55.873Z,99083.53
2023-05-15T19:41:23.529Z,99088.84
2023-05-15T19:43:50.989Z,99088.81
2023-05-15T19:46:18.991Z,99084.38
2023-05-15T19:48:46.681Z,99088.75
2023-05-15T19:51:14.211Z,99089.63
2023-05-15T19:53:41.557Z,99088.75
2023-05-15T19:56:08.770Z,99090.47
2023-05-15T19:58:35.911Z,99089.59
2023-05-15T20:01:03.561Z,99101.97
2023-05-15T20:03:33.998Z,99099.28
2023-05-15T20:06:02.496Z,99102.75
2023-05-15T20:08:30.001Z,99101.88
2023-05-15T20:10:57.878Z,99110.66
2023-05-15T20:13:25.281Z,99106.22
2023-05-15T20:15:58.028Z,99112.34
2023-05-15T20:18:27.763Z,99110.53
2023-05-15T20:20:55.227Z,99108.75
2023-05-15T20:23:22.728Z,99116.66
2023-05-15T20:25:51.285Z,99114.88
2023-05-15T20:28:18.850Z,99113.06
2023-05-15T20:30:47.368Z,99111.25
2023-05-15T20:33:14.709Z,99107.69
2023-05-15T20:35:43.438Z,99112.06
2023-05-15T20:38:11.861Z,99114.66
2023-05-15T20:40:39.293Z,99110.13
2023-05-15T20:43:07.015Z,99108.28
2023-05-15T20:45:34.278Z,99118.78
2023-05-15T20:48:01.738Z,99113.44
2023-05-15T20:50:29.081Z,99115.16
2023-05-15T20:52:56.301Z,99119.56
2023-05-15T20:55:23.605Z,99117.72
2023-05-15T20:57:50.831Z,99119.44
2023-05-15T21:00:18.934Z,99118.44
2023-05-15T21:02:46.877Z,99117.53
2023-05-15T21:05:14.610Z,99121.88
2023-05-15T21:07:41.834Z,99125.34
2023-05-15T21:10:09.631Z,99119.16
2023-05-15T21:12:36.820Z,99118.19
2023-05-15T21:15:05.090Z,99127.81
2023-05-15T21:17:32.147Z,99126.00
2023-05-15T21:20:01.000Z,99131.22
2023-05-15T21:22:28.179Z,99134.75
2023-05-15T21:24:55.309Z,99133.81
2023-05-15T21:27:22.452Z,99124.19
2023-05-15T21:29:49.573Z,99131.22
2023-05-15T21:32:17.227Z,99125.91
2023-05-15T21:34:44.387Z,99122.38
2023-05-15T21:37:11.531Z,99124.19
2023-05-15T21:39:38.678Z,99124.16
2023-05-15T21:42:05.878Z,99130.41
2023-05-15T21:44:32.998Z,99119.84
2023-05-15T21:47:00.237Z,99117.16
2023-05-15T21:49:27.424Z,99117.13
2023-05-15T21:51:54.568Z,99114.41
2023-05-15T21:54:21.822Z,99114.31
2023-05-15T21:56:49.106Z,99120.41
2023-05-15T21:59:16.231Z,99118.53
2023-05-15T22:01:43.421Z,99128.94
2023-05-15T22:04:10.837Z,99128.81
2023-05-15T22:06:38.167Z,99124.34
2023-05-15T22:09:06.116Z,99126.09
2023-05-15T22:11:33.486Z,99131.38
2023-05-15T22:14:00.708Z,99128.69
2023-05-15T22:16:28.047Z,99125.94
2023-05-15T22:18:55.497Z,99121.50
2023-05-15T22:21:22.928Z,99123.22
2023-05-15T22:23:50.190Z,99124.09
2023-05-15T22:26:19.829Z,99121.47
2023-05-15T22:28:48.869Z,99120.56
2023-05-15T22:31:16.003Z,99125.81
2023-05-15T22:33:43.231Z,99119.59
2023-05-15T22:36:10.672Z,99119.63
2023-05-15T22:38:38.180Z,99108.22
2023-05-15T22:41:05.730Z,99116.06
2023-05-15T22:43:33.120Z,99120.31
2023-05-15T22:46:00.829Z,99113.16
2023-05-15T22:48:28.158Z,99103.28
2023-05-15T22:50:55.394Z,99106.75
2023-05-15T22:53:22.647Z,99110.31
2023-05-15T22:55:49.913Z,99112.91
2023-05-15T22:58:17.692Z,99107.75
2023-05-15T23:00:44.960Z,99112.06
2023-05-15T23:03:12.261Z,99106.94
2023-05-15T23:05:40.322Z,99100.84
2023-05-15T23:08:07.649Z,99098.09
2023-05-15T23:10:34.888Z,99095.34
2023-05-15T23:13:02.142Z,99093.59
2023-05-15T23:15:29.509Z,99099.75
2023-05-15T23:17:56.773Z,99091.81
2023-05-15T23:20:24.119Z,99089.94
2023-05-15T23:22:51.440Z,99089.16
2023-05-15T23:25:18.867Z,99078.66
2023-05-15T23:27:46.477Z,99084.00
2023-05-15T23:30:14.964Z,99079.53
2023-05-15T23:32:42.269Z,99080.34
2023-05-15T23:35:10.224Z,99082.03
2023-05-15T23:37:37.517Z,99076.72
2023-05-15T23:40:06.514Z,99070.50
2023-05-15T23:42:33.877Z,99068.63
2023-05-15T23:45:01.275Z,99067.63
2023-05-15T23:47:28.659Z,99059.59
2023-05-15T23:49:56.091Z,99051.56
2023-05-15T23:52:23.318Z,99054.88
2023-05-15T23:54:50.552Z,99054.88
2023-05-15T23:57:17.887Z,99047.75
2023-05-15T23:59:45.300Z,99042.44
